Time;durP1;ratioP1;P1;durP2;ratioP2;P2;SDS_P1;SDS_P2;PMS_P1;PMS_P2;Temp;Humidity;BMP_temperature;BMP_pressure;BME280_temperature;BME280_humidity;BME280_pressure;Samples;Min_cycle;Max_cycle;Signal;HPM_P1;HPM_P2
2023/03/07 00:00:33;;;;;;;3.25;1.25;;;5.80;78.40;;;;;;5064455;28;20492;-78
2023/03/07 00:02:59;;;;;;;2.85;1.17;;;5.80;78.50;;;;;;5063340;28;21669;-78
2023/03/07 00:05:24;;;;;;;4.45;1.40;;;5.80;78.50;;;;;;5066873;28;20081;-78
2023/03/07 00:07:50;;;;;;;1.73;0.93;;;5.80;78.40;;;;;;5064285;28;20100;-77
2023/03/07 00:10:16;;;;;;;1.45;0.50;;;5.80;78.40;;;;;;5081041;28;20074;-78
2023/03/07 00:12:43;;;;;;;2.22;0.90;;;5.80;78.40;;;;;;5080745;28;20448;-78
2023/03/07 00:15:09;;;;;;;3.00;1.10;;;5.80;78.40;;;;;;5097565;28;20040;-77
2023/03/07 00:17:36;;;;;;;1.75;0.50;;;5.80;78.30;;;;;;5057543;28;20048;-77
2023/03/07 00:20:05;;;;;;;2.40;0.40;;;5.80;78.30;;;;;;5077635;28;20032;-77
2023/03/07 00:22:31;;;;;;;1.58;0.35;;;5.80;78.30;;;;;;5077986;28;20036;-77
2023/03/07 00:24:57;;;;;;;0.73;0.40;;;5.80;78.30;;;;;;5077328;28;20036;-78
2023/03/07 00:27:22;;;;;;;1.05;0.43;;;5.80;78.30;;;;;;5060587;28;20165;-77
2023/03/07 00:29:49;;;;;;;1.52;0.60;;;5.80;78.30;;;;;;5074327;28;20039;-77
2023/03/07 00:32:15;;;;;;;1.25;0.35;;;5.80;78.30;;;;;;5091439;27;20272;-77
2023/03/07 00:34:40;;;;;;;1.33;0.40;;;5.80;78.30;;;;;;5076850;28;20115;-77
2023/03/07 00:37:06;;;;;;;1.70;0.50;;;5.80;78.20;;;;;;5093650;27;20135;-78
2023/03/07 00:39:32;;;;;;;1.98;0.52;;;5.80;78.30;;;;;;5094139;28;20036;-78
2023/03/07 00:41:58;;;;;;;1.85;0.63;;;5.80;78.30;;;;;;5060829;28;20028;-77
2023/03/07 00:44:26;;;;;;;1.85;0.60;;;5.70;78.20;;;;;;5093771;28;20040;-77
2023/03/07 00:46:52;;;;;;;3.17;0.75;;;5.80;78.30;;;;;;5094274;28;20434;-77
2023/03/07 00:49:19;;;;;;;2.58;0.65;;;5.80;78.30;;;;;;5093618;28;20040;-77
2023/03/07 00:51:45;;;;;;;1.20;0.57;;;5.80;78.30;;;;;;5076934;28;20093;-77
2023/03/07 00:54:11;;;;;;;2.85;0.70;;;5.80;78.30;;;;;;5076706;28;20054;-76
2023/03/07 00:56:37;;;;;;;2.80;0.73;;;5.70;78.20;;;;;;5066724;28;20076;-76
2023/03/07 00:59:02;;;;;;;2.10;0.73;;;5.80;78.30;;;;;;5062224;28;20523;-77
2023/03/07 01:01:28;;;;;;;3.30;0.82;;;5.80;78.30;;;;;;5076434;28;20038;-77
2023/03/07 01:03:54;;;;;;;2.90;0.80;;;5.80;78.20;;;;;;5073685;28;20072;-76
2023/03/07 01:06:29;;;;;;;1.15;0.45;;;5.80;78.20;;;;;;5076284;28;20044;-76
2023/03/07 01:08:58;;;;;;;5.07;0.60;;;5.80;78.20;;;;;;5076143;28;20060;-76
2023/03/07 01:11:25;;;;;;;3.22;0.70;;;5.80;78.20;;;;;;5076213;28;20036;-77
2023/03/07 01:13:54;;;;;;;2.58;0.60;;;5.80;78.10;;;;;;5093336;28;20097;-77
2023/03/07 01:16:24;;;;;;;2.10;0.75;;;5.70;78.10;;;;;;5076487;28;20032;-77
2023/03/07 01:18:52;;;;;;;3.58;1.08;;;5.70;78.10;;;;;;5068911;28;20369;-77
2023/03/07 01:21:25;;;;;;;2.45;0.68;;;5.70;78.10;;;;;;5076141;28;20051;-77
2023/03/07 01:23:51;;;;;;;3.15;0.68;;;5.70;78.10;;;;;;5092843;28;20032;-77
2023/03/07 01:26:20;;;;;;;3.60;0.50;;;5.70;78.00;;;;;;5057372;28;20476;-77
2023/03/07 01:28:46;;;;;;;1.08;0.50;;;5.70;78.00;;;;;;5074855;28;20060;-77
2023/03/07 01:31:12;;;;;;;3.67;0.70;;;5.70;78.00;;;;;;5092623;28;20127;-77
2023/03/07 01:33:38;;;;;;;2.72;0.60;;;5.70;78.00;;;;;;5073673;28;20085;-77
2023/03/07 01:36:12;;;;;;;3.67;0.70;;;5.70;78.00;;;;;;5059352;28;20044;-77
2023/03/07 01:38:38;;;;;;;;;;;5.60;77.90;;;;;;5093632;28;20105;-77
2023/03/07 01:41:04;;;;;;;4.90;0.80;;;5.60;77.80;;;;;;5092420;28;19916;-77
2023/03/07 01:43:32;;;;;;;2.70;0.50;;;5.50;77.80;;;;;;5092839;28;20038;-77
2023/03/07 01:46:17;;;;;;;5.75;0.70;;;5.50;77.80;;;;;;5098748;28;20553;-77
2023/03/07 01:48:59;;;;;;;4.85;0.90;;;5.60;77.90;;;;;;5092684;28;20047;-77
2023/03/07 01:51:26;;;;;;;2.28;0.63;;;5.60;77.90;;;;;;5093580;28;20046;-77
2023/03/07 01:53:54;;;;;;;4.63;1.13;;;5.50;77.80;;;;;;5076711;28;20042;-77
2023/03/07 01:56:21;;;;;;;1.67;0.50;;;5.50;77.80;;;;;;5077145;28;20036;-77
2023/03/07 01:58:47;;;;;;;5.68;0.90;;;5.50;77.80;;;;;;5075344;28;20071;-77
2023/03/07 02:01:13;;;;;;;4.13;0.80;;;5.50;77.80;;;;;;5058551;28;20608;-77
2023/03/07 02:03:56;;;;;;;3.47;0.85;;;5.40;77.80;;;;;;5074998;28;20094;-77
2023/03/07 02:06:26;;;;;;;5.00;0.70;;;5.50;77.90;;;;;;5105980;28;20056;-77
2023/03/07 02:08:53;;;;;;;4.10;0.68;;;5.50;77.90;;;;;;5092526;28;20043;-77
2023/03/07 02:11:19;;;;;;;5.40;0.82;;;5.40;77.90;;;;;;5075129;28;20064;-77
2023/03/07 02:13:45;;;;;;;5.00;1.00;;;5.40;77.90;;;;;;5075897;28;20032;-77
2023/03/07 02:16:11;;;;;;;3.78;0.85;;;5.40;77.90;;;;;;5094765;28;20506;-77
2023/03/07 02:18:46;;;;;;;4.75;1.00;;;5.40;78.00;;;;;;5075304;28;20077;-77
2023/03/07 02:21:46;;;;;;;6.93;1.67;;;5.40;78.00;;;;;;5075120;28;20056;-77
2023/03/07 02:24:18;;;;;;;3.65;0.90;;;5.40;78.10;;;;;;5099706;28;20036;-77
2023/03/07 02:26:46;;;;;;;3.47;0.80;;;5.40;78.00;;;;;;5072765;28;20044;-77
2023/03/07 02:29:13;;;;;;;3.17;0.75;;;5.30;77.90;;;;;;5092105;28;20039;-77
2023/03/07 02:31:38;;;;;;;5.03;1.30;;;5.40;78.00;;;;;;5062161;28;20093;-77
2023/03/07 02:34:24;;;;;;;4.72;1.13;;;5.30;77.90;;;;;;5075082;28;20036;-77
2023/03/07 02:37:17;;;;;;;5.05;1.02;;;5.30;77.90;;;;;;5074800;28;20032;-77
2023/03/07 02:39:45;;;;;;;6.65;1.00;;;5.30;77.90;;;;;;5090462;28;20501;-77
2023/03/07 02:42:16;;;;;;;4.55;0.95;;;5.30;77.80;;;;;;5074505;28;20032;-77
2023/03/07 02:44:46;;;;;;;4.22;0.90;;;5.30;77.80;;;;;;5092768;28;20066;-77
2023/03/07 02:47:11;;;;;;;4.15;1.00;;;5.30;77.70;;;;;;5093153;28;20036;-78
2023/03/07 02:49:37;;;;;;;6.43;1.17;;;5.30;77.60;;;;;;5058167;28;20039;-77
2023/03/07 02:52:03;;;;;;;5.38;1.10;;;5.20;77.50;;;;;;5074635;28;20035;-77
2023/03/07 02:54:29;;;;;;;5.85;0.80;;;5.20;77.40;;;;;;5082572;28;20039;-78
2023/03/07 02:56:54;;;;;;;8.27;1.33;;;5.20;77.30;;;;;;5056377;28;20082;-77
2023/03/07 02:59:20;;;;;;;4.50;1.10;;;5.50;77.40;;;;;;5080235;28;20037;-77
2023/03/07 03:01:46;;;;;;;5.20;1.15;;;5.20;77.10;;;;;;5057563;28;20047;-77
2023/03/07 03:04:11;;;;;;;7.80;1.27;;;5.20;76.90;;;;;;5074239;28;20114;-77
2023/03/07 03:06:37;;;;;;;8.85;1.10;;;5.20;77.10;;;;;;5074342;28;20094;-77
2023/03/07 03:09:03;;;;;;;3.92;1.17;;;5.20;76.50;;;;;;5083093;28;20039;-77
2023/03/07 03:11:29;;;;;;;8.57;1.63;;;5.10;76.20;;;;;;5057677;28;20471;-78
2023/03/07 03:13:54;;;;;;;6.50;1.02;;;5.10;76.10;;;;;;5074222;28;20035;-79
2023/03/07 03:16:20;;;;;;;6.30;1.13;;;5.10;76.00;;;;;;5060844;28;20115;-78
2023/03/07 03:18:46;;;;;;;6.47;1.45;;;5.00;75.80;;;;;;5074429;28;20036;-78
2023/03/07 03:21:12;;;;;;;7.75;1.17;;;5.10;75.90;;;;;;5055999;28;20499;-78
2023/03/07 03:23:37;;;;;;;5.32;0.68;;;5.00;75.80;;;;;;5041889;28;20093;-78
2023/03/07 03:26:06;;;;;;;5.93;0.90;;;4.90;75.70;;;;;;5074505;28;20048;-78
2023/03/07 03:28:36;;;;;;;7.65;1.00;;;5.00;75.80;;;;;;5074532;28;20028;-78
2023/03/07 03:31:07;;;;;;;5.03;0.90;;;5.00;75.80;;;;;;5090966;28;20036;-78
2023/03/07 03:33:33;;;;;;;3.08;0.73;;;5.00;76.20;;;;;;5082724;28;20409;-78
2023/03/07 03:36:03;;;;;;;7.70;1.38;;;4.90;75.80;;;;;;5074793;28;20402;-78
2023/03/07 03:38:29;;;;;;;4.95;0.95;;;4.90;75.90;;;;;;5090994;28;20059;-78
2023/03/07 03:40:55;;;;;;;5.75;1.17;;;5.00;75.90;;;;;;5040162;28;21736;-78
2023/03/07 03:43:21;;;;;;;3.83;0.98;;;4.90;75.90;;;;;;5057610;28;20043;-78
2023/03/07 03:45:57;;;;;;;3.38;0.90;;;4.90;76.00;;;;;;5079190;28;20032;-78
2023/03/07 03:48:24;;;;;;;3.92;1.10;;;4.90;76.10;;;;;;5074106;28;20036;-78
2023/03/07 03:50:49;;;;;;;3.75;0.80;;;5.00;76.20;;;;;;5057536;28;20123;-78
2023/03/07 03:53:15;;;;;;;5.85;1.23;;;4.90;76.10;;;;;;5094363;28;20064;-78
2023/03/07 03:55:40;;;;;;;5.65;0.90;;;5.00;76.20;;;;;;5079787;28;20039;-78
2023/03/07 03:58:06;;;;;;;4.93;0.75;;;5.00;76.30;;;;;;5077627;28;20111;-78
2023/03/07 04:00:32;;;;;;;6.80;1.13;;;5.00;76.30;;;;;;5077832;28;20032;-78
2023/03/07 04:02:58;;;;;;;5.35;0.93;;;5.00;76.30;;;;;;5078617;28;20043;-78
2023/03/07 04:05:23;;;;;;;3.67;0.77;;;4.90;76.20;;;;;;5066043;28;20028;-78
2023/03/07 04:07:49;;;;;;;6.80;1.38;;;5.00;76.30;;;;;;5044474;28;20106;-78
2023/03/07 04:10:15;;;;;;;9.75;2.13;;;5.00;76.30;;;;;;5079622;28;20084;-78
2023/03/07 04:12:41;;;;;;;6.53;0.95;;;5.00;76.20;;;;;;5077889;28;20028;-79
2023/03/07 04:15:08;;;;;;;10.07;1.55;;;5.00;76.10;;;;;;5077816;28;20028;-78
2023/03/07 04:17:34;;;;;;;3.83;0.70;;;5.00;75.90;;;;;;5077434;28;20070;-78
2023/03/07 04:20:00;;;;;;;6.68;0.90;;;5.00;75.70;;;;;;5061011;28;20043;-78
2023/03/07 04:22:25;;;;;;;4.37;1.00;;;5.00;75.50;;;;;;5061081;28;20032;-78
2023/03/07 04:24:51;;;;;;;5.60;0.88;;;5.00;75.30;;;;;;5079790;28;20044;-78
2023/03/07 04:27:17;;;;;;;6.10;1.27;;;5.00;75.00;;;;;;5057631;28;20032;-78
2023/03/07 04:29:42;;;;;;;8.00;1.73;;;5.00;74.90;;;;;;5081366;28;20496;-78
2023/03/07 04:32:08;;;;;;;6.00;1.15;;;5.00;74.80;;;;;;5068953;28;20458;-79
2023/03/07 04:34:34;;;;;;;7.78;1.10;;;5.00;74.70;;;;;;5060590;28;20047;-79
2023/03/07 04:36:59;;;;;;;4.05;0.80;;;5.00;74.60;;;;;;5089593;27;20044;-78
2023/03/07 04:39:25;;;;;;;5.97;1.02;;;4.90;74.50;;;;;;5060722;28;20044;-78
2023/03/07 04:41:51;;;;;;;4.78;1.10;;;5.00;74.40;;;;;;5093407;28;20106;-78
2023/03/07 04:44:16;;;;;;;8.68;1.20;;;5.00;74.20;;;;;;5079243;27;20036;-78
2023/03/07 04:46:42;;;;;;;4.78;1.00;;;5.00;74.20;;;;;;5093840;28;20047;-78
2023/03/07 04:49:08;;;;;;;5.35;1.05;;;5.00;74.20;;;;;;5060575;28;20040;-78
2023/03/07 04:51:33;;;;;;;4.60;1.13;;;5.00;74.00;;;;;;5056047;28;20475;-78
2023/03/07 04:53:59;;;;;;;7.80;1.38;;;5.00;73.90;;;;;;5061836;28;20032;-78
2023/03/07 04:56:25;;;;;;;4.22;0.88;;;5.00;73.80;;;;;;5060589;28;20123;-79
2023/03/07 04:58:51;;;;;;;6.03;1.05;;;5.00;73.70;;;;;;5076478;28;20105;-78
2023/03/07 05:01:17;;;;;;;8.27;0.98;;;5.00;73.60;;;;;;5076547;28;20047;-79
2023/03/07 05:03:43;;;;;;;7.35;1.17;;;5.00;73.40;;;;;;5076548;28;20550;-78
2023/03/07 05:06:13;;;;;;;6.18;1.15;;;4.90;73.20;;;;;;5044649;28;20040;-78
2023/03/07 05:08:39;;;;;;;8.73;1.27;;;4.90;73.10;;;;;;5093212;28;20163;-78
2023/03/07 05:11:05;;;;;;;8.20;1.45;;;4.90;72.80;;;;;;5059838;28;20131;-78
2023/03/07 05:13:31;;;;;;;7.97;1.58;;;4.90;72.70;;;;;;5082665;28;20039;-78
2023/03/07 05:15:58;;;;;;;6.55;1.15;;;4.90;72.60;;;;;;5076724;28;20373;-78
2023/03/07 05:18:24;;;;;;;9.43;1.98;;;4.90;72.60;;;;;;5076228;28;20040;-78
2023/03/07 05:20:50;;;;;;;13.02;1.73;;;4.80;72.60;;;;;;5076136;28;20051;-78
2023/03/07 05:23:17;;;;;;;4.90;1.00;;;4.80;72.60;;;;;;5093084;28;20040;-78
2023/03/07 05:25:45;;;;;;;5.30;0.80;;;4.80;72.80;;;;;;5076560;28;20464;-78
2023/03/07 05:28:11;;;;;;;6.20;1.00;;;4.80;73.00;;;;;;5092842;28;20036;-78
2023/03/07 05:30:37;;;;;;;4.93;0.98;;;4.80;73.20;;;;;;5075550;28;20036;-78
2023/03/07 05:33:03;;;;;;;4.93;1.48;;;4.80;73.80;;;;;;5075448;28;20040;-78
2023/03/07 05:35:28;;;;;;;5.20;0.90;;;4.70;73.30;;;;;;5076228;28;20169;-78
2023/03/07 05:37:54;;;;;;;6.13;0.98;;;4.80;73.40;;;;;;5075830;28;20052;-78
2023/03/07 05:40:20;;;;;;;5.82;1.02;;;4.70;73.30;;;;;;5075869;28;20040;-78
2023/03/07 05:42:45;;;;;;;6.25;0.80;;;4.70;73.30;;;;;;5042745;28;20048;-78
2023/03/07 05:45:11;;;;;;;5.88;1.20;;;4.90;73.40;;;;;;5055904;28;20047;-78
2023/03/07 05:47:37;;;;;;;5.78;1.15;;;4.80;73.30;;;;;;5056580;28;20077;-78
2023/03/07 05:50:05;;;;;;;8.93;1.27;;;4.80;73.40;;;;;;5059558;28;20115;-78
2023/03/07 05:52:31;;;;;;;8.95;0.98;;;4.80;73.40;;;;;;5090766;28;20064;-77
2023/03/07 05:54:56;;;;;;;8.85;1.20;;;4.80;73.30;;;;;;5076409;28;20075;-77
2023/03/07 05:57:22;;;;;;;4.68;0.93;;;4.70;73.10;;;;;;5054125;28;20087;-78
2023/03/07 05:59:48;;;;;;;9.48;1.30;;;4.70;73.20;;;;;;5076212;28;20028;-78
2023/03/07 06:02:14;;;;;;;6.50;1.10;;;4.70;73.50;;;;;;5056555;28;20488;-78
2023/03/07 06:04:40;;;;;;;7.20;1.15;;;4.60;73.70;;;;;;5075616;28;20077;-78
2023/03/07 06:07:05;;;;;;;4.28;0.65;;;4.60;74.10;;;;;;5091392;28;20536;-78
2023/03/07 06:09:31;;;;;;;5.60;1.48;;;4.60;74.40;;;;;;5078594;28;20385;-78
2023/03/07 06:11:57;;;;;;;5.35;0.90;;;4.50;74.60;;;;;;5096961;28;20032;-78
2023/03/07 06:14:23;;;;;;;7.15;1.00;;;4.50;74.80;;;;;;5074989;28;20454;-78
2023/03/07 06:16:49;;;;;;;7.53;1.58;;;4.60;74.90;;;;;;5056751;28;20047;-78
2023/03/07 06:19:15;;;;;;;3.83;0.70;;;4.60;75.00;;;;;;5059397;28;20483;-78
2023/03/07 06:21:42;;;;;;;6.95;1.10;;;4.50;75.00;;;;;;5060476;28;20051;-78
2023/03/07 06:24:08;;;;;;;6.35;1.60;;;4.80;75.40;;;;;;5112752;28;20073;-78
2023/03/07 06:26:33;;;;;;;6.13;1.23;;;4.50;75.30;;;;;;5072318;28;20032;-78
2023/03/07 06:29:00;;;;;;;8.52;1.20;;;4.50;75.40;;;;;;5057239;28;20048;-78
2023/03/07 06:31:26;;;;;;;4.35;0.85;;;4.70;75.60;;;;;;5074305;28;20043;-78
2023/03/07 06:33:52;;;;;;;7.53;1.00;;;4.60;75.50;;;;;;5069407;28;20070;-77
2023/03/07 06:36:19;;;;;;;4.25;0.80;;;4.60;75.40;;;;;;5086386;28;20553;-78
2023/03/07 06:38:45;;;;;;;4.93;1.20;;;4.60;75.20;;;;;;5068845;28;20421;-78
2023/03/07 06:41:11;;;;;;;8.55;1.42;;;4.60;75.20;;;;;;5086208;28;20043;-78
2023/03/07 06:43:37;;;;;;;5.20;1.67;;;4.70;75.20;;;;;;5068834;28;20037;-78
2023/03/07 06:46:03;;;;;;;10.77;1.45;;;4.60;75.20;;;;;;5052667;28;20032;-77
2023/03/07 06:48:29;;;;;;;5.78;0.80;;;4.60;75.10;;;;;;5080184;28;20068;-78
2023/03/07 06:50:54;;;;;;;3.65;0.70;;;4.60;75.00;;;;;;5069394;28;20165;-78
2023/03/07 06:53:20;;;;;;;3.65;0.80;;;4.60;75.00;;;;;;5086356;28;20162;-77
2023/03/07 06:55:50;;;;;;;4.28;1.00;;;4.60;74.90;;;;;;5073376;28;20032;-78
2023/03/07 06:58:16;;;;;;;3.53;0.88;;;4.70;74.90;;;;;;5075145;28;20032;-78
2023/03/07 07:00:41;;;;;;;3.63;0.85;;;4.80;75.40;;;;;;5075484;28;20387;-77
2023/03/07 07:03:15;;;;;;;8.27;1.55;;;4.60;74.90;;;;;;5075052;28;20090;-77
2023/03/07 07:05:40;;;;;;;4.75;0.65;;;4.70;75.10;;;;;;5075159;28;20364;-77
2023/03/07 07:08:06;;;;;;;3.28;0.80;;;4.80;75.20;;;;;;5058894;28;20064;-77
2023/03/07 07:10:32;;;;;;;4.38;0.63;;;4.70;75.20;;;;;;5092058;28;20391;-77
2023/03/07 07:12:58;;;;;;;7.32;1.27;;;4.70;75.20;;;;;;5075265;28;20530;-77
2023/03/07 07:15:25;;;;;;;4.20;0.70;;;4.70;75.30;;;;;;5092256;28;20044;-77
2023/03/07 07:17:51;;;;;;;6.40;0.90;;;4.80;75.30;;;;;;5075134;28;20046;-77
2023/03/07 07:20:17;;;;;;;4.82;0.63;;;4.80;75.30;;;;;;5092003;28;20044;-76
2023/03/07 07:22:43;;;;;;;4.47;0.75;;;4.80;75.30;;;;;;5080097;28;20043;-76
2023/03/07 07:25:09;;;;;;;6.18;1.23;;;4.80;75.30;;;;;;5067696;28;20040;-77
2023/03/07 07:27:35;;;;;;;5.47;0.70;;;4.80;75.40;;;;;;5078621;28;20035;-77
2023/03/07 07:30:05;;;;;;;3.33;0.80;;;5.10;75.70;;;;;;5078550;28;20040;-76
2023/03/07 07:32:31;;;;;;;4.93;0.63;;;4.80;75.50;;;;;;5078574;28;20099;-77
2023/03/07 07:34:56;;;;;;;5.22;0.73;;;4.80;75.60;;;;;;5061943;28;20048;-76
2023/03/07 07:37:22;;;;;;;5.15;1.20;;;4.90;75.70;;;;;;5095559;28;20079;-77
2023/03/07 07:39:49;;;;;;;6.80;1.05;;;4.80;75.70;;;;;;5095369;28;20082;-76
2023/03/07 07:42:15;;;;;;;6.75;1.48;;;4.80;75.70;;;;;;5078687;28;20044;-77
2023/03/07 07:44:40;;;;;;;6.97;1.10;;;4.90;75.80;;;;;;5061678;28;20043;-76
2023/03/07 07:47:06;;;;;;;4.45;0.73;;;4.80;75.80;;;;;;5078412;28;20085;-76
2023/03/07 07:49:32;;;;;;;12.98;1.75;;;4.80;75.90;;;;;;5078226;28;20071;-76
2023/03/07 07:51:58;;;;;;;5.07;1.10;;;4.90;76.00;;;;;;5078226;28;20036;-76
2023/03/07 07:54:24;;;;;;;8.07;1.23;;;4.90;76.00;;;;;;5095160;28;20040;-76
2023/03/07 07:56:49;;;;;;;4.15;0.77;;;4.90;76.10;;;;;;5094861;28;20032;-76
2023/03/07 07:59:15;;;;;;;4.78;0.90;;;5.00;76.20;;;;;;5095231;28;20047;-76
2023/03/07 08:01:42;;;;;;;10.13;1.77;;;4.90;76.20;;;;;;5061574;28;20123;-76
2023/03/07 08:04:07;;;;;;;6.43;1.00;;;5.00;76.30;;;;;;5094877;28;20086;-76
2023/03/07 08:06:33;;;;;;;5.40;1.17;;;5.00;76.30;;;;;;5077783;28;20083;-77
2023/03/07 08:08:59;;;;;;;8.13;1.00;;;5.00;76.40;;;;;;5058049;28;20072;-76
2023/03/07 08:11:25;;;;;;;9.40;1.38;;;5.50;76.70;;;;;;5074479;28;20036;-76
2023/03/07 08:13:51;;;;;;;4.93;0.95;;;5.00;76.30;;;;;;5108771;28;20052;-76
2023/03/07 08:16:22;;;;;;;9.18;1.10;;;5.00;76.30;;;;;;5107197;28;20596;-76
2023/03/07 08:18:50;;;;;;;3.80;0.80;;;5.10;76.40;;;;;;5077851;28;20074;-76
2023/03/07 08:21:16;;;;;;;4.20;0.70;;;5.10;76.20;;;;;;5077827;28;20543;-76
2023/03/07 08:23:42;;;;;;;6.88;0.68;;;5.10;75.80;;;;;;5094558;28;20036;-76
2023/03/07 08:26:09;;;;;;;5.85;0.95;;;5.10;76.00;;;;;;5060870;28;20040;-77
2023/03/07 08:28:36;;;;;;;4.03;0.60;;;5.10;75.40;;;;;;5094462;28;20562;-76
2023/03/07 08:31:10;;;;;;;3.03;0.68;;;5.10;75.40;;;;;;5060620;28;20036;-76
2023/03/07 08:33:37;;;;;;;2.22;0.43;;;5.10;75.50;;;;;;5077442;28;20071;-76
2023/03/07 08:36:03;;;;;;;3.25;0.40;;;5.30;75.60;;;;;;5093607;28;20042;-76
2023/03/07 08:38:29;;;;;;;2.92;0.52;;;5.10;75.40;;;;;;5076691;28;20044;-76
2023/03/07 08:40:59;;;;;;;3.08;0.60;;;5.20;75.30;;;;;;5094536;28;20097;-76
2023/03/07 08:43:26;;;;;;;2.40;0.52;;;5.20;75.40;;;;;;5093816;28;20048;-77
2023/03/07 08:45:52;;;;;;;2.40;0.60;;;5.20;75.40;;;;;;5077950;28;20036;-77
2023/03/07 08:48:19;;;;;;;5.25;0.70;;;5.20;75.40;;;;;;5062036;28;20097;-77
2023/03/07 08:50:45;;;;;;;2.58;0.52;;;5.20;75.50;;;;;;5078594;28;20077;-78
2023/03/07 08:53:15;;;;;;;2.00;0.80;;;5.30;75.60;;;;;;5078449;28;20122;-77
2023/03/07 08:55:42;;;;;;;3.45;0.65;;;5.30;75.70;;;;;;5077937;28;20047;-77
2023/03/07 08:58:08;;;;;;;5.07;0.75;;;5.40;75.80;;;;;;5077371;28;20127;-77
2023/03/07 09:00:34;;;;;;;5.53;0.70;;;5.40;75.80;;;;;;5094245;28;20052;-77
2023/03/07 09:03:00;;;;;;;2.85;0.80;;;5.40;75.70;;;;;;5093888;28;20043;-77
2023/03/07 09:05:27;;;;;;;4.28;0.70;;;5.40;75.70;;;;;;5094324;28;20119;-78
2023/03/07 09:07:53;;;;;;;4.10;1.23;;;5.50;75.70;;;;;;5093761;28;20083;-78
2023/03/07 09:10:20;;;;;;;6.25;1.00;;;5.50;75.70;;;;;;5077530;28;20102;-78
2023/03/07 09:12:47;;;;;;;2.50;0.68;;;5.50;75.70;;;;;;5077423;28;20438;-78
2023/03/07 09:15:13;;;;;;;4.18;1.02;;;5.50;75.70;;;;;;5094303;28;20511;-78
2023/03/07 09:17:38;;;;;;;4.68;1.10;;;5.50;75.70;;;;;;5060431;28;20068;-77
2023/03/07 09:20:05;;;;;;;3.17;0.70;;;5.50;75.70;;;;;;5077424;28;20075;-77
2023/03/07 09:22:31;;;;;;;3.50;0.80;;;5.60;75.80;;;;;;5077258;28;20074;-77
2023/03/07 09:24:57;;;;;;;2.50;0.45;;;5.70;76.00;;;;;;5076723;28;20507;-77
2023/03/07 09:27:23;;;;;;;2.53;0.65;;;5.70;75.80;;;;;;5060140;28;20085;-78
2023/03/07 09:29:48;;;;;;;2.90;0.82;;;5.70;75.50;;;;;;5060164;28;20119;-77
2023/03/07 09:32:14;;;;;;;2.42;0.40;;;5.70;75.50;;;;;;5060097;28;20074;-78
2023/03/07 09:34:40;;;;;;;3.90;0.77;;;5.70;75.40;;;;;;5076607;28;20047;-78
2023/03/07 09:37:05;;;;;;;2.65;0.50;;;5.80;75.30;;;;;;5059946;28;20395;-78
2023/03/07 09:39:31;;;;;;;3.15;0.60;;;5.80;75.00;;;;;;5076752;28;20051;-77
2023/03/07 09:42:18;;;;;;;5.05;0.68;;;5.80;74.70;;;;;;5043293;28;20040;-78
2023/03/07 09:44:59;;;;;;;4.07;0.60;;;5.80;74.70;;;;;;5076555;28;20044;-78
2023/03/07 09:47:37;;;;;;;4.97;1.30;;;5.80;74.60;;;;;;5076226;28;20069;-77
2023/03/07 09:50:12;;;;;;;4.22;1.13;;;5.80;74.50;;;;;;5075657;28;20418;-77
2023/03/07 09:52:40;;;;;;;3.70;1.25;;;5.80;74.30;;;;;;5076286;28;20040;-77
2023/03/07 09:55:14;;;;;;;6.00;1.60;;;5.80;74.20;;;;;;5059536;28;20101;-77
2023/03/07 09:57:59;;;;;;;3.85;1.40;;;5.80;74.20;;;;;;5092831;28;20044;-77
2023/03/07 10:00:44;;;;;;;3.30;0.90;;;5.80;74.20;;;;;;5093035;28;20117;-77
2023/03/07 10:03:54;;;;;;;5.60;0.90;;;5.80;74.00;;;;;;5075761;28;20044;-78
2023/03/07 10:06:37;;;;;;;2.67;0.73;;;5.90;73.90;;;;;;5085241;28;20492;-78
2023/03/07 10:09:06;;;;;;;5.68;1.30;;;5.80;73.80;;;;;;5056100;28;20040;-78
2023/03/07 10:12:17;;;;;;;5.80;1.08;;;5.80;73.60;;;;;;5055787;28;20122;-78
2023/03/07 10:15:07;;;;;;;6.13;1.35;;;5.80;73.50;;;;;;5068892;28;20064;-78
2023/03/07 10:17:55;;;;;;;3.15;0.85;;;5.80;73.70;;;;;;5076718;28;20048;-77
2023/03/07 10:20:43;;;;;;;5.13;0.85;;;5.80;73.70;;;;;;5092631;28;20040;-77
2023/03/07 10:23:28;;;;;;;5.70;0.90;;;5.80;73.70;;;;;;5075764;28;20040;-77
2023/03/07 10:26:30;;;;;;;6.50;1.13;;;5.90;73.60;;;;;;5092940;28;20449;-78
2023/03/07 10:28:57;;;;;;;9.82;1.17;;;5.90;73.50;;;;;;5092701;28;20043;-78
2023/03/07 10:31:29;;;;;;;8.00;1.38;;;5.90;73.60;;;;;;5075611;28;20468;-78
2023/03/07 10:33:54;;;;;;;6.93;1.10;;;5.90;73.50;;;;;;5075569;28;20372;-77
2023/03/07 10:36:42;;;;;;;5.30;0.70;;;5.90;73.60;;;;;;5059052;28;20086;-78
2023/03/07 10:39:45;;;;;;;6.45;1.20;;;6.00;73.70;;;;;;5074958;28;20048;-77
2023/03/07 10:42:13;;;;;;;4.93;0.90;;;6.00;73.60;;;;;;5075412;28;20044;-77
2023/03/07 10:44:40;;;;;;;4.13;0.90;;;6.00;73.80;;;;;;5092184;28;20392;-77
2023/03/07 10:47:17;;;;;;;8.65;1.30;;;6.10;74.30;;;;;;5075730;28;20375;-77
2023/03/07 10:49:45;;;;;;;5.18;1.10;;;6.10;73.70;;;;;;5092126;28;20040;-77
2023/03/07 10:52:32;;;;;;;4.13;0.90;;;6.20;73.70;;;;;;5092196;28;20032;-77
2023/03/07 10:55:30;;;;;;;4.40;0.90;;;6.30;73.50;;;;;;5092244;28;20046;-77
2023/03/07 10:58:15;;;;;;;6.47;1.45;;;6.30;73.50;;;;;;5086029;28;20047;-77
2023/03/07 11:00:43;;;;;;;;;;;6.40;73.40;;;;;;5092065;28;20085;-77
2023/03/07 11:03:41;;;;;;;7.78;1.40;;;6.40;73.30;;;;;;5091812;28;20371;-77
2023/03/07 11:06:50;;;;;;;6.88;1.20;;;6.50;73.30;;;;;;5058295;28;20097;-77
2023/03/07 11:09:28;;;;;;;4.90;0.93;;;6.50;73.30;;;;;;5074832;28;20075;-77
2023/03/07 11:12:10;;;;;;;2.83;0.80;;;6.60;73.20;;;;;;5091835;28;20510;-77
2023/03/07 11:14:46;;;;;;;4.95;1.23;;;6.70;72.60;;;;;;5107181;28;20036;-77
2023/03/07 11:17:42;;;;;;;6.57;1.60;;;6.70;72.50;;;;;;5091662;28;20043;-77
2023/03/07 11:20:48;;;;;;;4.85;1.05;;;6.80;72.60;;;;;;5092156;28;20394;-76
2023/03/07 11:23:24;;;;;;;3.22;0.60;;;6.90;72.30;;;;;;5090320;28;20178;-77
2023/03/07 11:25:51;;;;;;;2.85;0.55;;;6.90;72.20;;;;;;5075133;28;20094;-76
2023/03/07 11:28:32;;;;;;;8.18;0.90;;;7.00;72.20;;;;;;5058103;28;20032;-77
2023/03/07 11:31:00;;;;;;;2.63;1.20;;;7.00;71.90;;;;;;5054738;28;20047;-77
2023/03/07 11:33:48;;;;;;;7.72;1.35;;;7.00;71.90;;;;;;5071294;28;20403;-76
2023/03/07 11:36:18;;;;;;;7.38;1.25;;;7.10;71.30;;;;;;5105565;28;20429;-77
2023/03/07 11:38:49;;;;;;;3.90;0.95;;;7.20;71.30;;;;;;5071319;28;20053;-77
2023/03/07 11:41:27;;;;;;;7.18;1.00;;;7.20;71.00;;;;;;5071452;28;20423;-77
2023/03/07 11:44:17;;;;;;;5.05;1.10;;;7.20;70.90;;;;;;5060152;28;20079;-77
2023/03/07 11:47:26;;;;;;;7.63;1.63;;;7.30;70.60;;;;;;5091452;28;20480;-77
2023/03/07 11:49:58;;;;;;;7.30;1.20;;;7.40;70.30;;;;;;5091450;28;20043;-78
2023/03/07 11:52:42;;;;;;;7.47;1.67;;;7.50;70.20;;;;;;5074660;28;20098;-78
2023/03/07 11:55:35;;;;;;;6.82;0.98;;;7.60;68.50;;;;;;5074649;28;20040;-78
2023/03/07 11:58:41;;;;;;;7.25;1.02;;;7.60;68.70;;;;;;5074316;28;20593;-78
2023/03/07 12:01:30;;;;;;;8.20;1.20;;;7.70;68.10;;;;;;5087922;28;20124;-78
2023/03/07 12:04:11;;;;;;;7.95;1.10;;;7.80;67.50;;;;;;5074609;28;20048;-78
2023/03/07 12:06:58;;;;;;;7.22;1.70;;;7.80;66.60;;;;;;5074313;28;20119;-78
2023/03/07 12:09:38;;;;;;;5.75;0.90;;;7.80;65.20;;;;;;5074460;28;20040;-78
2023/03/07 12:12:16;;;;;;;12.75;1.92;;;7.80;65.20;;;;;;5074352;28;20071;-78
2023/03/07 12:15:06;;;;;;;5.57;1.52;;;7.80;64.60;;;;;;5078476;28;20075;-78
2023/03/07 12:17:41;;;;;;;9.45;1.27;;;7.80;63.90;;;;;;5095214;28;20039;-77
2023/03/07 12:20:24;;;;;;;8.73;1.80;;;7.70;63.20;;;;;;5095136;28;20460;-77
2023/03/07 12:23:08;;;;;;;5.57;1.27;;;7.60;62.80;;;;;;5078007;28;20047;-77
2023/03/07 12:25:38;;;;;;;6.60;1.10;;;7.50;63.20;;;;;;5094948;28;20127;-76
2023/03/07 12:28:12;;;;;;;3.13;0.82;;;7.20;63.70;;;;;;5078093;28;20119;-77
2023/03/07 12:30:50;;;;;;;3.22;0.52;;;7.10;63.60;;;;;;5078308;28;20116;-77
2023/03/07 12:33:50;;;;;;;4.63;0.60;;;6.90;63.60;;;;;;5094543;28;20514;-76
2023/03/07 12:36:33;;;;;;;2.70;0.63;;;6.80;64.70;;;;;;5094775;28;20074;-76
2023/03/07 12:39:04;;;;;;;7.45;1.27;;;6.80;65.70;;;;;;5094594;28;20043;-76
2023/03/07 12:41:48;;;;;;;6.47;1.92;;;6.80;66.10;;;;;;5094751;28;20392;-76
2023/03/07 12:44:29;;;;;;;6.47;1.10;;;6.70;66.00;;;;;;5094489;28;20036;-76
2023/03/07 12:47:05;;;;;;;8.00;1.15;;;6.70;66.60;;;;;;5077493;28;20036;-76
2023/03/07 12:49:42;;;;;;;7.68;1.50;;;6.70;67.10;;;;;;5094315;28;20032;-76
2023/03/07 12:52:37;;;;;;;6.18;1.08;;;6.70;67.20;;;;;;5077734;28;20036;-76
2023/03/07 12:55:39;;;;;;;5.78;1.33;;;6.80;67.30;;;;;;5093579;28;20101;-76
2023/03/07 12:58:43;;;;;;;3.47;0.80;;;6.70;67.70;;;;;;5093810;28;20499;-76
2023/03/07 13:01:28;;;;;;;6.40;1.38;;;6.70;68.00;;;;;;5094066;28;20119;-76
2023/03/07 13:04:11;;;;;;;4.43;1.00;;;6.80;68.20;;;;;;5094077;28;20052;-76
2023/03/07 13:06:40;;;;;;;8.83;2.63;;;6.80;68.30;;;;;;5076749;28;20055;-76
2023/03/07 13:09:13;;;;;;;7.07;1.60;;;6.80;68.30;;;;;;5093910;28;20043;-76
2023/03/07 13:12:07;;;;;;;3.53;1.15;;;6.80;68.20;;;;;;5077875;28;20040;-76
2023/03/07 13:14:38;;;;;;;5.60;0.98;;;6.80;67.40;;;;;;5076131;28;20047;-76
2023/03/07 13:17:07;;;;;;;5.68;1.05;;;6.80;66.90;;;;;;5112653;28;20039;-77